createdAt,value
2018-09-11T00:00:29.580Z,88.16
2018-09-11T00:02:58.059Z,88.19
2018-09-11T00:05:26.479Z,89.30
2018-09-11T00:07:54.988Z,88.89
2018-09-11T00:10:24.023Z,89.48
2018-09-11T00:12:52.805Z,88.88
2018-09-11T00:15:21.225Z,88.19
2018-09-11T00:17:49.737Z,88.26
2018-09-11T00:20:18.146Z,88.75
2018-09-11T00:22:47.609Z,88.53
2018-09-11T00:25:16.178Z,88.39
2018-09-11T00:27:44.675Z,89.19
2018-09-11T00:30:13.161Z,88.24
2018-09-11T00:32:41.705Z,87.87
2018-09-11T00:35:10.209Z,88.17
2018-09-11T00:37:38.731Z,87.51
2018-09-11T00:40:07.198Z,87.93
2018-09-11T00:42:35.666Z,88.65
2018-09-11T00:45:04.229Z,88.75
2018-09-11T00:47:32.746Z,88.70
2018-09-11T00:50:01.186Z,88.12
2018-09-11T00:52:29.708Z,88.57
2018-09-11T00:54:58.375Z,89.38
2018-09-11T00:57:26.910Z,89.66
2018-09-11T00:59:55.369Z,90.28
2018-09-11T01:02:23.833Z,90.24
2018-09-11T01:04:52.481Z,90.68
2018-09-11T01:07:21.162Z,91.38
2018-09-11T01:09:49.818Z,91.12
2018-09-11T01:12:18.242Z,91.93
2018-09-11T01:14:46.748Z,91.84
2018-09-11T01:17:15.446Z,91.33
2018-09-11T01:19:43.949Z,91.39
2018-09-11T01:22:12.385Z,92.33
2018-09-11T01:24:40.902Z,92.64
2018-09-11T01:27:09.325Z,93.13
2018-09-11T01:29:37.829Z,93.73
2018-09-11T01:32:06.293Z,94.32
2018-09-11T01:34:34.849Z,94.86
2018-09-11T01:37:03.370Z,94.60
2018-09-11T01:39:31.869Z,94.44
2018-09-11T01:42:00.343Z,94.34
2018-09-11T01:44:28.836Z,94.89
2018-09-11T01:46:57.313Z,95.34
2018-09-11T01:49:25.787Z,95.05
2018-09-11T01:51:54.409Z,96.08
2018-09-11T01:54:22.898Z,95.64
2018-09-11T01:56:51.528Z,95.26
2018-09-11T01:59:20.026Z,95.73
2018-09-11T02:01:48.503Z,95.86
2018-09-11T02:04:17.249Z,95.80
2018-09-11T02:06:45.694Z,95.73
2018-09-11T02:09:14.181Z,95.66
2018-09-11T02:11:42.654Z,95.71
2018-09-11T02:14:11.129Z,95.56
2018-09-11T02:16:39.581Z,94.54
2018-09-11T02:19:08.122Z,94.37
2018-09-11T02:21:36.569Z,94.43
2018-09-11T02:24:05.045Z,94.71
2018-09-11T02:26:33.553Z,95.32
2018-09-11T02:29:02.006Z,95.26
2018-09-11T02:31:30.464Z,95.90
2018-09-11T02:33:58.988Z,96.22
2018-09-11T02:36:27.441Z,97.06
2018-09-11T02:38:55.991Z,97.54
2018-09-11T02:41:24.390Z,97.38
2018-09-11T02:43:53.334Z,97.78
2018-09-11T02:46:21.758Z,98.09
2018-09-11T02:48:50.288Z,98.48
2018-09-11T02:51:18.716Z,98.50
2018-09-11T02:53:47.241Z,99.36
2018-09-11T02:56:15.849Z,99.39
2018-09-11T02:58:44.307Z,99.09
2018-09-11T03:01:12.782Z,99.51
2018-09-11T03:03:41.246Z,100.00
2018-09-11T03:06:09.793Z,100.00
2018-09-11T03:08:38.226Z,99.39
2018-09-11T03:11:06.773Z,99.36
2018-09-11T03:13:35.257Z,98.59
2018-09-11T03:16:03.798Z,98.42
2018-09-11T03:18:32.474Z,98.30
2018-09-11T03:21:00.926Z,98.41
2018-09-11T03:23:30.457Z,98.73
2018-09-11T03:25:59.046Z,98.60
2018-09-11T03:28:27.513Z,98.77
2018-09-11T03:30:55.977Z,99.06
2018-09-11T03:33:24.432Z,99.35
2018-09-11T03:35:53.154Z,100.00
2018-09-11T03:38:21.656Z,100.00
2018-09-11T03:40:50.188Z,100.00
2018-09-11T03:43:18.754Z,100.00
2018-09-11T03:45:48.121Z,100.00
2018-09-11T03:48:18.845Z,100.00
2018-09-11T03:50:48.745Z,100.00
2018-09-11T03:53:17.646Z,100.00
2018-09-11T03:55:46.605Z,100.00
2018-09-11T03:58:15.395Z,100.00
2018-09-11T04:00:43.909Z,100.00
2018-09-11T04:03:12.553Z,100.00
2018-09-11T04:05:40.989Z,100.00
2018-09-11T04:08:09.438Z,100.00
2018-09-11T04:10:37.955Z,100.00
2018-09-11T04:13:06.453Z,100.00
2018-09-11T04:15:34.902Z,100.00
2018-09-11T04:18:03.430Z,100.00
2018-09-11T04:20:31.877Z,100.00
2018-09-11T04:23:00.417Z,100.00
2018-09-11T04:25:28.912Z,100.00
2018-09-11T04:27:57.602Z,100.00
2018-09-11T04:30:26.081Z,100.00
2018-09-11T04:32:55.601Z,100.00
2018-09-11T04:35:23.990Z,100.00
2018-09-11T04:37:52.590Z,100.00
2018-09-11T04:40:21.090Z,100.00
2018-09-11T04:42:49.945Z,100.00
2018-09-11T04:45:18.537Z,100.00
2018-09-11T04:47:48.062Z,100.00
2018-09-11T04:50:17.770Z,100.00
2018-09-11T04:52:47.252Z,100.00
2018-09-11T04:55:15.726Z,100.00
2018-09-11T04:57:44.215Z,100.00
2018-09-11T05:00:12.791Z,100.00
2018-09-11T05:02:41.266Z,100.00
2018-09-11T05:05:09.735Z,100.00
2018-09-11T05:07:38.285Z,100.00
2018-09-11T05:10:07.226Z,100.00
2018-09-11T05:12:35.817Z,100.00
2018-09-11T05:15:04.325Z,100.00
2018-09-11T05:17:32.798Z,100.00
2018-09-11T05:20:01.226Z,100.00
2018-09-11T05:22:29.740Z,100.00
2018-09-11T05:24:58.191Z,100.00
2018-09-11T05:27:26.718Z,100.00
2018-09-11T05:29:55.153Z,100.00
2018-09-11T05:32:23.644Z,100.00
2018-09-11T05:34:52.421Z,100.00
2018-09-11T05:37:20.904Z,100.00
2018-09-11T05:39:49.430Z,100.00
2018-09-11T05:42:17.958Z,100.00
2018-09-11T05:44:46.373Z,100.00
2018-09-11T05:47:14.916Z,99.44
2018-09-11T05:49:43.495Z,99.97
2018-09-11T05:52:11.913Z,99.03
2018-09-11T05:54:40.447Z,97.97
2018-09-11T05:57:08.857Z,97.66
2018-09-11T05:59:37.262Z,96.87
2018-09-11T06:02:05.802Z,96.98
2018-09-11T06:04:34.261Z,96.27
2018-09-11T06:07:02.743Z,95.74
2018-09-11T06:09:31.189Z,95.27
2018-09-11T06:11:59.737Z,94.62
2018-09-11T06:14:28.166Z,94.00
2018-09-11T06:16:56.677Z,93.89
2018-09-11T06:19:25.113Z,93.48
2018-09-11T06:21:53.932Z,93.77
2018-09-11T06:24:22.390Z,92.62
2018-09-11T06:26:50.930Z,92.49
2018-09-11T06:29:19.485Z,91.55
2018-09-11T06:31:48.139Z,91.69
2018-09-11T06:34:16.726Z,91.20
2018-09-11T06:36:45.302Z,90.15
2018-09-11T06:39:13.849Z,90.23
2018-09-11T06:41:42.281Z,89.05
2018-09-11T06:44:10.793Z,88.79
2018-09-11T06:46:39.305Z,88.07
2018-09-11T06:49:07.710Z,88.60
2018-09-11T06:51:36.182Z,87.30
2018-09-11T06:54:04.917Z,87.49
2018-09-11T06:56:33.361Z,86.20
2018-09-11T06:59:01.936Z,85.52
2018-09-11T07:01:30.318Z,85.64
2018-09-11T07:03:58.829Z,83.00
2018-09-11T07:06:27.492Z,83.41
2018-09-11T07:08:56.278Z,83.75
2018-09-11T07:11:24.781Z,81.46
2018-09-11T07:13:53.469Z,80.98
2018-09-11T07:16:21.977Z,81.32
2018-09-11T07:18:50.476Z,80.74
2018-09-11T07:21:19.093Z,80.20
2018-09-11T07:23:47.549Z,79.68
2018-09-11T07:26:16.937Z,79.70
2018-09-11T07:28:45.382Z,78.12
2018-09-11T07:31:13.858Z,78.08
2018-09-11T07:33:42.513Z,78.71
2018-09-11T07:36:11.053Z,78.14
2018-09-11T07:38:39.487Z,76.85
2018-09-11T07:41:08.797Z,75.26
2018-09-11T07:43:37.281Z,74.97
2018-09-11T07:46:05.782Z,74.58
2018-09-11T07:48:34.519Z,73.41
2018-09-11T07:51:02.937Z,73.39
2018-09-11T07:53:31.453Z,73.34
2018-09-11T07:55:59.898Z,71.66
2018-09-11T07:58:28.401Z,71.39
2018-09-11T08:00:56.879Z,70.47
2018-09-11T08:03:25.366Z,69.87
2018-09-11T08:05:54.261Z,69.00
2018-09-11T08:08:22.717Z,69.71
2018-09-11T08:10:51.250Z,68.30
2018-09-11T08:13:19.666Z,68.06
2018-09-11T08:15:48.654Z,66.95
2018-09-11T08:18:17.339Z,67.81
2018-09-11T08:20:46.007Z,67.73
2018-09-11T08:23:14.489Z,66.56
2018-09-11T08:25:42.950Z,66.17
2018-09-11T08:28:11.406Z,66.63
2018-09-11T08:30:39.915Z,66.16
2018-09-11T08:33:08.404Z,65.09
2018-09-11T08:35:36.821Z,64.37
2018-09-11T08:38:05.393Z,64.76
2018-09-11T08:40:34.030Z,63.54
2018-09-11T08:43:02.538Z,63.70
2018-09-11T08:45:30.970Z,63.38
2018-09-11T08:47:59.434Z,61.97
2018-09-11T08:50:27.986Z,61.47
2018-09-11T08:52:56.399Z,60.74
2018-09-11T08:55:24.903Z,58.37
2018-09-11T08:57:53.583Z,56.63
2018-09-11T09:00:22.046Z,56.78
2018-09-11T09:02:50.555Z,56.28
2018-09-11T09:05:19.021Z,53.61
2018-09-11T09:07:47.554Z,52.84
2018-09-11T09:10:16.158Z,52.59
2018-09-11T09:12:44.795Z,52.09
2018-09-11T09:15:13.229Z,50.92
2018-09-11T09:17:41.714Z,51.03
2018-09-11T09:20:10.205Z,49.59
2018-09-11T09:22:38.618Z,48.14
2018-09-11T09:25:07.233Z,48.29
2018-09-11T09:27:35.763Z,47.68
2018-09-11T09:30:04.174Z,47.00
2018-09-11T09:32:32.610Z,46.35
2018-09-11T09:35:01.168Z,46.26
2018-09-11T09:37:29.654Z,44.40
2018-09-11T09:39:58.170Z,43.06
2018-09-11T09:42:26.666Z,42.57
2018-09-11T09:44:55.218Z,40.21
2018-09-11T09:47:23.705Z,38.54
2018-09-11T09:49:52.387Z,37.38
2018-09-11T09:52:20.870Z,36.39
2018-09-11T09:54:49.393Z,36.82
2018-09-11T09:57:17.977Z,36.13
2018-09-11T09:59:46.487Z,33.75
2018-09-11T10:02:20.349Z,33.69
2018-09-11T10:04:48.943Z,32.69
2018-09-11T10:07:17.997Z,31.65
2018-09-11T10:09:46.500Z,32.03
2018-09-11T10:12:15.023Z,30.95
2018-09-11T10:14:43.502Z,29.90
2018-09-11T10:17:12.309Z,29.79
2018-09-11T10:19:41.028Z,29.51
2018-09-11T10:22:09.534Z,28.61
2018-09-11T10:24:38.014Z,28.43
2018-09-11T10:27:06.523Z,28.70
2018-09-11T10:29:35.089Z,28.97
2018-09-11T10:32:03.562Z,28.46
2018-09-11T10:34:32.211Z,26.80
2018-09-11T10:37:00.790Z,26.22
2018-09-11T10:39:29.338Z,27.27
2018-09-11T10:41:57.762Z,25.41
2018-09-11T10:44:26.531Z,24.83
2018-09-11T10:46:55.094Z,25.56
2018-09-11T10:49:23.521Z,23.44
2018-09-11T10:51:52.272Z,23.68
2018-09-11T10:54:20.842Z,23.52
2018-09-11T10:56:49.506Z,21.69
2018-09-11T10:59:18.193Z,22.44
2018-09-11T11:01:46.650Z,22.81
2018-09-11T11:04:15.185Z,21.66
2018-09-11T11:06:43.599Z,22.64
2018-09-11T11:09:12.171Z,22.32
2018-09-11T11:11:40.673Z,21.29
2018-09-11T11:14:09.534Z,21.55
2018-09-11T11:16:37.946Z,20.03
2018-09-11T11:19:06.562Z,19.54
2018-09-11T11:21:35.037Z,19.75
2018-09-11T11:24:03.501Z,19.56
2018-09-11T11:26:31.989Z,18.61
2018-09-11T11:29:00.445Z,18.26
2018-09-11T11:31:28.933Z,18.92
2018-09-11T11:33:57.409Z,19.53
2018-09-11T11:36:25.988Z,18.14
2018-09-11T11:38:54.870Z,17.08
2018-09-11T11:41:23.303Z,16.80
2018-09-11T11:43:52.417Z,17.14
2018-09-11T11:46:20.920Z,16.56
2018-09-11T11:48:49.358Z,18.68
2018-09-11T11:51:17.893Z,17.65
2018-09-11T11:53:46.329Z,16.42
2018-09-11T11:56:14.805Z,16.62
2018-09-11T11:58:43.265Z,17.49
2018-09-11T12:01:11.889Z,17.28
2018-09-11T12:03:40.326Z,16.16
2018-09-11T12:06:08.834Z,18.03
2018-09-11T12:08:37.282Z,16.26
2018-09-11T12:11:05.817Z,15.62
2018-09-11T12:13:34.258Z,15.76
2018-09-11T12:16:02.772Z,14.99
2018-09-11T12:18:31.603Z,14.80
2018-09-11T12:21:00.121Z,14.04
2018-09-11T12:23:28.585Z,14.44
2018-09-11T12:25:57.101Z,13.47
2018-09-11T12:28:25.545Z,13.75
2018-09-11T12:30:54.476Z,13.43
2018-09-11T12:33:22.925Z,13.43
2018-09-11T12:35:52.013Z,12.37
2018-09-11T12:38:20.589Z,12.56
2018-09-11T12:40:49.098Z,11.59
2018-09-11T12:43:17.906Z,11.76
2018-09-11T12:45:46.444Z,13.01
2018-09-11T12:48:15.143Z,12.58
2018-09-11T12:50:43.299Z,12.29
2018-09-11T12:53:11.817Z,12.16
2018-09-11T12:55:40.282Z,12.37
2018-09-11T12:58:09.106Z,10.82
2018-09-11T13:00:37.722Z,9.98
2018-09-11T13:03:06.211Z,11.45
2018-09-11T13:05:34.605Z,10.37
2018-09-11T13:08:03.109Z,11.01
2018-09-11T13:10:31.566Z,9.76
2018-09-11T13:13:00.071Z,9.78
2018-09-11T13:15:28.537Z,11.07
2018-09-11T13:17:57.022Z,10.34
2018-09-11T13:20:25.500Z,10.58
2018-09-11T13:22:54.363Z,10.16
2018-09-11T13:25:22.810Z,10.88
2018-09-11T13:27:51.280Z,10.69
2018-09-11T13:30:19.735Z,11.10
2018-09-11T13:32:48.225Z,11.39
2018-09-11T13:35:16.841Z,11.28
2018-09-11T13:37:45.518Z,11.10
2018-09-11T13:40:13.977Z,10.66
2018-09-11T13:42:42.485Z,11.77
2018-09-11T13:45:10.958Z,9.97
2018-09-11T13:47:39.455Z,10.22
2018-09-11T13:50:08.025Z,10.99
2018-09-11T13:52:36.521Z,9.96
2018-09-11T13:55:05.290Z,10.38
2018-09-11T13:57:33.793Z,10.02
2018-09-11T14:00:02.242Z,10.08
2018-09-11T14:02:30.790Z,9.74
2018-09-11T14:04:59.197Z,10.20
2018-09-11T14:07:27.743Z,11.21
2018-09-11T14:09:56.178Z,10.75
2018-09-11T14:12:24.677Z,10.50
2018-09-11T14:14:53.629Z,10.54
2018-09-11T14:17:22.099Z,10.10
2018-09-11T14:19:50.505Z,10.63
2018-09-11T14:22:19.278Z,9.78
2018-09-11T14:24:47.766Z,10.39
2018-09-11T14:27:16.394Z,10.18
2018-09-11T14:29:44.854Z,9.46
2018-09-11T14:32:13.335Z,9.06
2018-09-11T14:34:41.833Z,9.27
2018-09-11T14:37:10.286Z,9.30
2018-09-11T14:39:38.782Z,9.45
2018-09-11T14:42:07.249Z,9.34
2018-09-11T14:44:35.830Z,9.82
2018-09-11T14:47:04.362Z,10.18
2018-09-11T14:49:32.853Z,10.26
2018-09-11T14:52:01.281Z,9.67
2018-09-11T14:54:29.817Z,10.65
2018-09-11T14:56:58.277Z,10.36
2018-09-11T14:59:26.918Z,10.48
2018-09-11T15:01:55.523Z,10.07
2018-09-11T15:04:24.039Z,9.32
2018-09-11T15:06:52.782Z,10.04
2018-09-11T15:09:21.309Z,9.60
2018-09-11T15:11:50.026Z,9.24
2018-09-11T15:14:18.638Z,10.24
2018-09-11T15:16:47.148Z,9.93
2018-09-11T15:19:16.009Z,9.95
2018-09-11T15:21:44.506Z,9.76
2018-09-11T15:24:13.019Z,10.19
2018-09-11T15:26:41.487Z,10.69
2018-09-11T15:29:10.069Z,10.28
2018-09-11T15:31:38.530Z,9.56
2018-09-11T15:34:07.080Z,9.80
2018-09-11T15:36:35.503Z,10.21
2018-09-11T15:39:04.268Z,9.89
2018-09-11T15:41:32.754Z,9.72
2018-09-11T15:44:01.323Z,9.86
2018-09-11T15:46:29.750Z,9.24
2018-09-11T15:48:58.270Z,9.23
2018-09-11T15:51:26.687Z,10.04
2018-09-11T15:53:55.725Z,10.00
2018-09-11T15:56:24.209Z,10.01
2018-09-11T15:58:53.059Z,10.48
2018-09-11T16:01:21.630Z,10.91
2018-09-11T16:03:50.137Z,9.78
2018-09-11T16:06:18.841Z,10.05
2018-09-11T16:08:47.282Z,9.51
2018-09-11T16:11:17.768Z,9.64
2018-09-11T16:13:46.173Z,10.80
2018-09-11T16:16:14.705Z,9.74
2018-09-11T16:18:43.181Z,10.11
2018-09-11T16:21:11.815Z,9.87
2018-09-11T16:23:40.325Z,10.16
2018-09-11T16:26:08.797Z,10.76
2018-09-11T16:28:37.341Z,10.73
2018-09-11T16:31:05.999Z,10.87
2018-09-11T16:33:34.477Z,10.79
2018-09-11T16:36:03.215Z,10.33
2018-09-11T16:38:31.738Z,9.88
2018-09-11T16:41:00.210Z,10.11
2018-09-11T16:43:28.695Z,10.41
2018-09-11T16:45:57.171Z,10.81
2018-09-11T16:48:25.645Z,11.41
2018-09-11T16:50:54.233Z,13.03
2018-09-11T16:53:22.752Z,16.25
2018-09-11T16:55:51.315Z,18.96
2018-09-11T16:58:19.881Z,21.18
2018-09-11T17:00:48.406Z,22.53
2018-09-11T17:03:16.987Z,23.84
2018-09-11T17:05:45.574Z,25.34
2018-09-11T17:08:14.010Z,26.24
2018-09-11T17:10:42.517Z,26.78
2018-09-11T17:13:10.985Z,27.59
2018-09-11T17:15:39.510Z,28.52
2018-09-11T17:18:07.934Z,29.00
2018-09-11T17:20:36.437Z,29.92
2018-09-11T17:23:04.909Z,30.48
2018-09-11T17:25:33.512Z,30.88
2018-09-11T17:28:01.997Z,31.56
2018-09-11T17:30:30.485Z,31.94
2018-09-11T17:32:58.941Z,32.22
2018-09-11T17:35:27.490Z,32.59
2018-09-11T17:37:56.001Z,34.30
2018-09-11T17:40:24.522Z,35.39
2018-09-11T17:42:53.348Z,36.47
2018-09-11T17:45:21.741Z,37.45
2018-09-11T17:47:52.306Z,38.39
2018-09-11T17:50:20.765Z,38.29
2018-09-11T17:52:49.250Z,39.40
2018-09-11T17:55:17.932Z,40.53
2018-09-11T17:57:46.495Z,40.96
2018-09-11T18:00:14.967Z,41.68
2018-09-11T18:02:43.460Z,42.58
2018-09-11T18:05:12.041Z,42.69
2018-09-11T18:07:40.658Z,43.92
2018-09-11T18:10:09.126Z,43.84
2018-09-11T18:12:37.624Z,44.96
2018-09-11T18:15:06.196Z,45.76
2018-09-11T18:17:34.644Z,46.15
2018-09-11T18:20:03.168Z,46.75
2018-09-11T18:22:31.645Z,46.46
2018-09-11T18:25:00.165Z,47.27
2018-09-11T18:27:28.830Z,47.69
2018-09-11T18:29:57.735Z,48.92
2018-09-11T18:32:26.193Z,48.96
2018-09-11T18:34:55.138Z,49.61
2018-09-11T18:37:24.561Z,50.57
2018-09-11T18:39:53.232Z,50.01
2018-09-11T18:42:21.674Z,50.68
2018-09-11T18:44:50.154Z,51.37
2018-09-11T18:47:19.009Z,52.31
2018-09-11T18:49:47.550Z,52.41
2018-09-11T18:52:16.152Z,52.61
2018-09-11T18:54:44.636Z,53.80
2018-09-11T18:57:13.130Z,53.62
2018-09-11T18:59:41.640Z,55.55
2018-09-11T19:02:10.125Z,54.33
2018-09-11T19:04:38.653Z,54.77
2018-09-11T19:07:07.117Z,55.42
2018-09-11T19:09:35.570Z,55.52
2018-09-11T19:12:04.142Z,55.13
2018-09-11T19:14:32.630Z,55.80
2018-09-11T19:17:02.194Z,56.00
2018-09-11T19:19:30.598Z,56.47
2018-09-11T19:21:59.094Z,56.01
2018-09-11T19:24:28.622Z,55.09
2018-09-11T19:26:57.177Z,56.32
2018-09-11T19:29:25.603Z,56.31
2018-09-11T19:31:54.321Z,55.90
2018-09-11T19:34:22.744Z,57.01
2018-09-11T19:36:51.274Z,56.71
2018-09-11T19:39:19.804Z,56.58
2018-09-11T19:41:48.254Z,57.88
2018-09-11T19:44:16.805Z,58.98
2018-09-11T19:46:45.322Z,59.34
2018-09-11T19:49:13.882Z,60.49
2018-09-11T19:51:42.290Z,60.65
2018-09-11T19:54:10.830Z,61.83
2018-09-11T19:56:39.303Z,62.19
2018-09-11T19:59:07.751Z,63.22
2018-09-11T20:01:36.366Z,63.21
2018-09-11T20:04:04.969Z,64.59
2018-09-11T20:06:33.513Z,64.44
2018-09-11T20:09:02.029Z,64.34
2018-09-11T20:11:30.456Z,64.57
2018-09-11T20:13:58.945Z,64.08
2018-09-11T20:16:27.411Z,64.25
2018-09-11T20:18:55.933Z,65.35
2018-09-11T20:21:24.414Z,65.57
2018-09-11T20:23:53.041Z,66.75
2018-09-11T20:26:21.460Z,65.48
2018-09-11T20:28:49.998Z,65.97
2018-09-11T20:31:18.503Z,67.06
2018-09-11T20:33:47.045Z,67.97
2018-09-11T20:36:15.766Z,68.37
2018-09-11T20:38:44.323Z,68.19
2018-09-11T20:41:12.737Z,68.90
2018-09-11T20:43:41.261Z,68.99
2018-09-11T20:46:09.784Z,69.79
2018-09-11T20:48:38.222Z,70.01
2018-09-11T20:51:06.729Z,70.26
2018-09-11T20:53:35.158Z,71.04
2018-09-11T20:56:03.805Z,71.62
2018-09-11T20:58:32.224Z,72.05
2018-09-11T21:01:00.762Z,72.40
2018-09-11T21:03:29.278Z,72.28
2018-09-11T21:05:57.817Z,72.46
2018-09-11T21:08:26.294Z,72.24
2018-09-11T21:10:55.010Z,72.32
2018-09-11T21:13:23.423Z,72.52
2018-09-11T21:15:52.079Z,72.60
2018-09-11T21:18:20.582Z,72.90
2018-09-11T21:20:49.093Z,73.37
2018-09-11T21:23:17.558Z,73.16
2018-09-11T21:25:46.053Z,73.56
2018-09-11T21:28:14.513Z,73.79
2018-09-11T21:30:43.190Z,74.02
2018-09-11T21:33:11.682Z,74.71
2018-09-11T21:35:40.377Z,74.84
2018-09-11T21:38:08.849Z,74.79
2018-09-11T21:40:37.385Z,74.86
2018-09-11T21:43:05.849Z,76.26
2018-09-11T21:45:34.319Z,76.57
2018-09-11T21:48:02.810Z,76.46
2018-09-11T21:50:31.385Z,76.85
2018-09-11T21:52:59.849Z,77.18
2018-09-11T21:55:28.342Z,77.00
2018-09-11T21:57:56.854Z,76.94
2018-09-11T22:00:25.397Z,77.58
2018-09-11T22:02:54.038Z,77.02
2018-09-11T22:05:22.502Z,77.87
2018-09-11T22:07:50.890Z,78.79
2018-09-11T22:10:19.429Z,78.33
2018-09-11T22:12:47.973Z,77.93
2018-09-11T22:15:16.473Z,77.86
2018-09-11T22:17:45.014Z,78.55
2018-09-11T22:20:13.480Z,79.28
2018-09-11T22:22:41.920Z,80.10
2018-09-11T22:25:10.429Z,80.29
2018-09-11T22:27:38.898Z,79.83
2018-09-11T22:30:07.587Z,80.87
2018-09-11T22:32:36.063Z,80.42
2018-09-11T22:35:04.601Z,80.61
2018-09-11T22:37:33.082Z,81.45
2018-09-11T22:40:01.562Z,81.60
2018-09-11T22:42:29.998Z,82.04
2018-09-11T22:44:58.466Z,82.37
2018-09-11T22:47:26.983Z,82.00
2018-09-11T22:49:56.448Z,82.66
2018-09-11T22:52:24.961Z,82.51
2018-09-11T22:54:54.282Z,83.23
2018-09-11T22:57:22.786Z,83.13
2018-09-11T22:59:51.205Z,82.79
2018-09-11T23:02:19.857Z,83.53
2018-09-11T23:04:48.322Z,83.28
2018-09-11T23:07:16.823Z,83.13
2018-09-11T23:09:45.243Z,83.83
2018-09-11T23:12:13.734Z,84.07
2018-09-11T23:14:42.192Z,84.45
2018-09-11T23:17:10.733Z,84.93
2018-09-11T23:19:39.194Z,85.45
2018-09-11T23:22:07.669Z,85.47
2018-09-11T23:24:36.134Z,85.04
2018-09-11T23:27:04.810Z,84.88
2018-09-11T23:29:33.293Z,84.12
2018-09-11T23:32:01.803Z,83.69
2018-09-11T23:34:30.248Z,83.57
2018-09-11T23:36:58.743Z,83.92
2018-09-11T23:39:27.134Z,84.08
2018-09-11T23:41:55.821Z,83.80
2018-09-11T23:44:24.305Z,84.55
2018-09-11T23:46:53.051Z,85.08
2018-09-11T23:49:21.541Z,84.88
2018-09-11T23:51:50.029Z,84.29
2018-09-11T23:54:18.789Z,85.20
2018-09-11T23:56:47.222Z,84.86
2018-09-11T23:59:15.684Z,85.43
